Xin'an, China
Current Conditions -  °F | °C
As of 12:00 AM on Saturday 20 Dec 2014 (Local Time) from ZYCC Reporting Station
Haze Haze  
Wind Chill: -8°   Ceiling: Unl
Heat Index:   Visibility: 3mi
Dew Point: -6°   Wind: 4mph
Humidity: 72%   Direction: 320°NW
Pressure: 30.15"   Gusts: NA
Location:  43.75°N, 125.68°E
Report Text: ZYCC 191600Z 32002MPS 5000 BR SCT026 M17/M21 Q1021 NOSIG
Loading
Personal Weather Stations






























Interactive Weather Map New forecast layout! Learn more

10-Day Weather Forecast

Advertisements
Track Severe Weather on mobile